Time;durP1;ratioP1;P1;durP2;ratioP2;P2;SDS_P1;SDS_P2;PMS_P1;PMS_P2;Temp;Humidity;BMP_temperature;BMP_pressure;BME280_temperature;BME280_humidity;BME280_pressure;Samples;Min_cycle;Max_cycle;Signal;HPM_P1;HPM_P2
2023/02/03 00:02:10;;;;;;;18.05;8.27;;;;;;;5.37;100.00;100401.00;5039898;28;20447;-59
2023/02/03 00:04:36;;;;;;;15.73;7.18;;;;;;;5.44;100.00;100387.78;5040933;28;20037;-59
2023/02/03 00:07:01;;;;;;;17.67;7.78;;;;;;;5.64;100.00;100390.75;5045619;28;20030;-59
2023/02/03 00:09:27;;;;;;;15.63;5.68;;;;;;;5.82;100.00;100364.66;5037083;28;20052;-59
2023/02/03 00:11:52;;;;;;;22.08;8.20;;;;;;;5.70;100.00;100371.44;5039006;28;20120;-59
2023/02/03 00:14:18;;;;;;;21.42;7.85;;;;;;;5.63;100.00;100375.81;5034808;28;20090;-59
2023/02/03 00:16:43;;;;;;;21.70;7.28;;;;;;;5.70;100.00;100383.91;5033678;28;20083;-59
2023/02/03 00:19:08;;;;;;;19.45;6.95;;;;;;;5.73;100.00;100387.00;5044876;28;20095;-59
2023/02/03 00:21:34;;;;;;;15.32;6.82;;;;;;;5.83;100.00;100384.09;5042557;28;20083;-59
2023/02/03 00:23:59;;;;;;;17.63;7.13;;;;;;;5.80;100.00;100379.13;5039268;28;20033;-59
2023/02/03 00:26:27;;;;;;;25.42;6.50;;;;;;;5.80;100.00;100379.13;5035400;28;20036;-59
2023/02/03 00:28:52;;;;;;;22.80;6.95;;;;;;;5.79;100.00;100382.78;5041463;28;20029;-59
2023/02/03 00:31:20;;;;;;;15.65;6.38;;;;;;;5.83;100.00;100384.09;5035370;28;20036;-59
2023/02/03 00:33:46;;;;;;;19.75;7.18;;;;;;;5.86;100.00;100369.59;5040749;28;20033;-59
2023/02/03 00:36:11;;;;;;;15.57;5.88;;;;;;;6.00;100.00;100369.63;5040205;28;20025;-58
2023/02/03 00:38:37;;;;;;;18.77;6.22;;;;;;;6.05;100.00;100355.75;5076253;28;20029;-59
2023/02/03 00:41:02;;;;;;;13.95;6.43;;;;;;;6.12;100.00;100346.03;5038095;28;20025;-59
2023/02/03 00:43:28;;;;;;;16.63;6.93;;;;;;;6.01;100.00;100330.53;5024996;28;20407;-58
2023/02/03 00:45:53;;;;;;;16.63;6.53;;;;;;;6.02;100.00;100325.03;5038235;28;20488;-59
2023/02/03 00:48:19;;;;;;;10.18;5.35;;;;;;;6.09;100.00;100313.63;5042535;28;20033;-59
2023/02/03 00:50:47;;;;;;;14.73;5.50;;;;;;;6.05;100.00;100307.84;5041163;28;20535;-59
2023/02/03 00:53:13;;;;;;;13.02;5.90;;;;;;;6.04;100.00;100308.84;5036638;28;20060;-59
2023/02/03 00:55:38;;;;;;;10.93;5.55;;;;;;;5.94;100.00;100308.31;5039322;28;20395;-59
2023/02/03 00:58:04;;;;;;;13.48;5.32;;;;;;;5.88;100.00;100301.06;5040404;28;20230;-59
2023/02/03 01:00:29;;;;;;;14.48;5.68;;;;;;;5.80;100.00;100316.09;5042108;28;20068;-58
2023/02/03 01:02:55;;;;;;;11.25;5.82;;;;;;;5.72;100.00;100316.22;5036756;28;20028;-59
2023/02/03 01:05:20;;;;;;;17.60;6.15;;;;;;;5.65;100.00;100303.84;5054526;28;20039;-59
2023/02/03 01:07:45;;;;;;;19.15;6.63;;;;;;;5.55;100.00;100301.44;5039255;28;20441;-59
2023/02/03 01:10:11;;;;;;;14.80;6.70;;;;;;;5.50;100.00;100312.63;5047987;28;20419;-59
2023/02/03 01:12:36;;;;;;;17.33;7.07;;;;;;;5.43;100.00;100297.59;5046355;28;20028;-59
2023/02/03 01:15:02;;;;;;;17.88;7.05;;;;;;;5.48;100.00;100295.22;5039442;28;20364;-59
2023/02/03 01:17:27;;;;;;;22.23;7.53;;;;;;;5.38;100.00;100300.78;5037982;28;20091;-59
2023/02/03 01:19:52;;;;;;;17.08;6.88;;;;;;;5.39;100.00;100297.97;5032729;28;20021;-58
2023/02/03 01:22:18;;;;;;;19.02;7.60;;;;;;;5.39;100.00;100294.44;5043546;28;20033;-59
2023/02/03 01:24:43;;;;;;;16.00;5.38;;;;;;;5.42;100.00;100302.09;5038231;28;20105;-59
2023/02/03 01:27:09;;;;;;;17.80;7.57;;;;;;;5.35;100.00;100304.63;5036477;28;20087;-59
2023/02/03 01:29:34;;;;;;;14.90;7.18;;;;;;;5.35;100.00;100299.31;5042428;28;20029;-59
2023/02/03 01:32:00;;;;;;;21.27;7.03;;;;;;;5.45;100.00;100292.91;5036733;28;20028;-59
2023/02/03 01:34:25;;;;;;;17.13;6.60;;;;;;;5.44;100.00;100284.09;5050073;28;20025;-58
2023/02/03 01:36:51;;;;;;;15.50;6.43;;;;;;;5.45;100.00;100290.25;5042826;28;20029;-58
2023/02/03 01:39:16;;;;;;;13.10;6.05;;;;;;;5.49;100.00;100287.06;5042318;28;20028;-58
2023/02/03 01:41:42;;;;;;;25.38;6.80;;;;;;;5.43;100.00;100271.81;5040730;28;20060;-58
2023/02/03 01:44:46;;;;;;;15.98;6.30;;;;;;;5.41;100.00;100269.34;5042318;28;20025;-58
2023/02/03 01:47:48;;;;;;;25.70;6.63;;;;;;;5.33;100.00;100281.91;5042764;28;20033;-58
2023/02/03 01:50:17;;;;;;;16.27;6.57;;;;;;;5.30;100.00;100272.47;5041504;28;20041;-58
2023/02/03 01:52:45;;;;;;;20.80;6.90;;;;;;;5.33;100.00;100282.72;5042232;28;20025;-58
2023/02/03 01:55:13;;;;;;;17.58;6.72;;;;;;;5.36;100.00;100292.16;5034532;28;20026;-58
2023/02/03 01:57:50;;;;;;;19.38;5.97;;;;;;;5.39;100.00;100292.66;5029934;28;20021;-58
2023/02/03 02:00:16;;;;;;;16.30;6.50;;;;;;;5.45;100.00;100303.56;5020719;28;20471;-58
2023/02/03 02:02:42;;;;;;;20.25;6.20;;;;;;;5.53;100.00;100308.78;5038438;28;20093;-58
2023/02/03 02:05:19;;;;;;;13.40;5.50;;;;;;;5.63;100.00;100325.28;5034291;28;20025;-59
2023/02/03 02:07:44;;;;;;;14.52;5.45;;;;;;;5.61;100.00;100330.78;5046037;28;20033;-58
2023/02/03 02:10:10;;;;;;;24.98;6.95;;;;;;;5.67;100.00;100339.88;5030050;28;20033;-58
2023/02/03 02:12:35;;;;;;;15.75;5.05;;;;;;;5.72;100.00;100334.84;5056951;28;20077;-58
2023/02/03 02:15:01;;;;;;;13.88;5.03;;;;;;;5.80;100.00;100329.41;5030716;28;20075;-58
2023/02/03 02:17:36;;;;;;;17.35;5.43;;;;;;;5.83;100.00;100317.56;5042397;28;20075;-58
2023/02/03 02:20:10;;;;;;;10.90;3.97;;;;;;;6.02;100.00;100324.19;5042300;28;20668;-58
2023/02/03 02:22:47;;;;;;;16.50;4.60;;;;;;;5.98;100.00;100328.22;5052552;28;20422;-58
2023/02/03 02:25:24;;;;;;;12.80;3.80;;;;;;;6.04;100.00;100327.47;5023230;28;20037;-58
2023/02/03 02:27:50;;;;;;;14.95;3.95;;;;;;;6.07;100.00;100327.13;5050817;28;20143;-58
2023/02/03 02:30:41;;;;;;;13.80;3.75;;;;;;;6.15;100.00;100324.34;5043305;28;20029;-58
2023/02/03 02:33:18;;;;;;;15.45;3.88;;;;;;;6.19;100.00;100338.94;5019227;28;20072;-58
2023/02/03 02:35:57;;;;;;;12.85;3.63;;;;;;;6.20;100.00;100348.56;5045596;28;20080;-58
2023/02/03 02:38:49;;;;;;;10.40;3.92;;;;;;;6.32;100.00;100350.78;5044821;28;20430;-58
2023/02/03 02:41:14;;;;;;;13.93;4.07;;;;;;;6.34;100.00;100340.72;5068339;28;20028;-58
2023/02/03 02:43:41;;;;;;;8.82;3.35;;;;;;;6.32;100.00;100332.94;5046713;28;20024;-58
2023/02/03 02:46:13;;;;;;;11.27;3.38;;;;;;;6.37;100.00;100332.41;5045374;28;20032;-58
2023/02/03 02:48:55;;;;;;;7.57;3.65;;;;;;;6.46;100.00;100328.59;5029780;28;20557;-58
2023/02/03 02:51:21;;;;;;;7.43;3.15;;;;;;;6.42;100.00;100330.81;5045798;28;20040;-58
2023/02/03 02:53:53;;;;;;;20.42;3.83;;;;;;;6.37;100.00;100324.41;5037176;28;20589;-58
2023/02/03 02:56:19;;;;;;;11.40;3.58;;;;;;;6.33;100.00;100326.59;5044106;28;20036;-58
2023/02/03 02:58:46;;;;;;;10.48;3.75;;;;;;;6.43;100.00;100315.66;5035711;28;20447;-58
2023/02/03 03:01:11;;;;;;;7.90;3.60;;;;;;;6.37;100.00;100316.41;5033649;28;20369;-58
2023/02/03 03:03:39;;;;;;;10.80;3.42;;;;;;;6.40;100.00;100294.72;5026082;28;20021;-58
2023/02/03 03:06:07;;;;;;;10.68;3.65;;;;;;;6.43;100.00;100297.00;5046555;28;20028;-58
2023/02/03 03:08:35;;;;;;;9.65;3.75;;;;;;;6.40;100.00;100298.22;5043306;28;20045;-58
2023/02/03 03:11:00;;;;;;;8.40;3.42;;;;;;;6.35;100.00;100281.97;5027230;28;20090;-58
2023/02/03 03:13:28;;;;;;;10.40;3.65;;;;;;;6.31;100.00;100286.03;5043526;28;20459;-58
2023/02/03 03:15:54;;;;;;;8.30;3.38;;;;;;;6.26;100.00;100281.28;5044707;28;20029;-58
2023/02/03 03:18:30;;;;;;;11.27;3.85;;;;;;;6.32;100.00;100277.03;5047299;28;20070;-58
2023/02/03 03:20:56;;;;;;;10.60;4.00;;;;;;;6.33;100.00;100278.66;5039648;28;20227;-58
2023/02/03 03:23:29;;;;;;;16.63;3.88;;;;;;;6.31;100.00;100280.69;5025924;28;20036;-58
2023/02/03 03:26:01;;;;;;;13.88;4.00;;;;;;;6.31;100.00;100270.03;5044649;28;20111;-58
2023/02/03 03:28:35;;;;;;;11.00;3.67;;;;;;;6.26;100.00;100283.09;5043614;28;20035;-58
2023/02/03 03:31:00;;;;;;;11.90;3.95;;;;;;;6.22;100.00;100293.31;5016850;28;20049;-58
2023/02/03 03:33:26;;;;;;;14.25;3.92;;;;;;;6.31;100.00;100312.66;5044644;28;20063;-58
2023/02/03 03:36:04;;;;;;;9.77;3.47;;;;;;;6.27;100.00;100327.38;5037127;28;20486;-58
2023/02/03 03:38:35;;;;;;;7.38;3.67;;;;;;;6.26;100.00;100323.03;5053460;28;20067;-58
2023/02/03 03:41:03;;;;;;;9.50;3.40;;;;;;;6.15;100.00;100308.38;5025182;28;20032;-58
2023/02/03 03:43:29;;;;;;;12.45;3.80;;;;;;;6.19;100.00;100311.47;5026588;28;20018;-58
2023/02/03 03:46:01;;;;;;;16.88;3.97;;;;;;;6.29;100.00;100303.19;5022279;28;20590;-58
2023/02/03 03:48:56;;;;;;;8.95;3.60;;;;;;;6.26;100.00;100283.09;5039350;28;20372;-58
2023/02/03 03:51:33;;;;;;;8.82;3.40;;;;;;;6.25;100.00;100292.94;5030641;28;20051;-58
2023/02/03 03:54:00;;;;;;;8.75;3.83;;;;;;;6.26;100.00;100288.44;5040309;28;20070;-58
2023/02/03 03:56:28;;;;;;;12.63;3.97;;;;;;;6.26;100.00;100288.44;5044370;28;20021;-58
2023/02/03 03:58:54;;;;;;;11.00;3.65;;;;;;;6.29;100.00;100287.22;5032866;28;20029;-58
2023/02/03 04:01:20;;;;;;;15.95;4.70;;;;;;;6.29;100.00;100281.91;5043191;28;20035;-60
2023/02/03 04:03:47;;;;;;;9.35;3.22;;;;;;;6.33;100.00;100283.19;5046465;28;20024;-59
2023/02/03 04:06:12;;;;;;;11.13;3.50;;;;;;;6.43;100.00;100294.34;5075837;28;20452;-59
2023/02/03 04:08:38;;;;;;;13.13;3.22;;;;;;;6.46;100.00;100285.97;5043719;28;20060;-59
2023/02/03 04:11:04;;;;;;;8.05;3.03;;;;;;;6.49;100.00;100293.59;5042984;28;20476;-59
2023/02/03 04:13:29;;;;;;;11.05;3.05;;;;;;;6.59;99.39;100307.44;5046135;28;20025;-59
2023/02/03 04:15:55;;;;;;;12.15;3.08;;;;;;;6.62;98.96;100306.22;5041486;28;20387;-59
2023/02/03 04:18:20;;;;;;;10.02;3.08;;;;;;;6.59;98.91;100294.09;5046226;28;20166;-59
2023/02/03 04:20:46;;;;;;;10.27;3.10;;;;;;;6.59;99.19;100278.13;5049244;28;20028;-59
2023/02/03 04:23:11;;;;;;;12.65;3.30;;;;;;;6.52;98.97;100279.91;5048700;28;20017;-59
2023/02/03 04:25:36;;;;;;;9.10;2.83;;;;;;;6.48;99.40;100278.63;5040586;28;20035;-59
2023/02/03 04:28:02;;;;;;;6.30;2.80;;;;;;;6.53;97.87;100273.53;5041405;28;20090;-59
2023/02/03 04:30:27;;;;;;;10.23;3.10;;;;;;;6.59;97.55;100293.25;5044570;28;20360;-59
2023/02/03 04:32:53;;;;;;;9.88;3.08;;;;;;;6.53;98.21;100292.19;5036366;28;20624;-59
2023/02/03 04:35:18;;;;;;;5.32;2.78;;;;;;;6.48;98.57;100287.44;5041933;28;20029;-59
2023/02/03 04:37:44;;;;;;;9.20;2.85;;;;;;;6.46;99.41;100293.97;5045238;28;20024;-59
2023/02/03 04:40:11;;;;;;;13.45;3.42;;;;;;;6.42;99.18;100308.69;5037476;28;20037;-59
2023/02/03 04:42:37;;;;;;;10.07;3.10;;;;;;;6.43;99.46;100312.97;5036735;28;20035;-59
2023/02/03 04:45:04;;;;;;;7.20;2.83;;;;;;;6.49;98.32;100309.59;5042026;28;20434;-59
2023/02/03 04:47:29;;;;;;;15.82;3.30;;;;;;;6.57;97.87;100282.00;5046736;28;20028;-59
2023/02/03 04:49:54;;;;;;;8.95;3.08;;;;;;;6.53;98.04;100278.88;5040761;28;20522;-59
2023/02/03 04:52:23;;;;;;;9.32;2.90;;;;;;;6.59;97.33;100277.28;5045916;28;20029;-59
2023/02/03 04:54:48;;;;;;;12.60;3.90;;;;;;;6.62;96.94;100280.41;5040786;28;20056;-59
2023/02/03 04:57:14;;;;;;;11.02;2.90;;;;;;;6.68;95.92;100276.97;5045751;28;20024;-59
2023/02/03 04:59:39;;;;;;;13.30;3.20;;;;;;;6.67;96.38;100272.66;5043657;28;20447;-59
2023/02/03 05:02:05;;;;;;;4.55;2.10;;;;;;;6.68;95.24;100276.97;5044430;28;20022;-59
2023/02/03 05:04:31;;;;;;;8.90;2.90;;;;;;;6.69;95.24;100293.78;5045339;28;20033;-59
2023/02/03 05:06:56;;;;;;;11.90;3.20;;;;;;;6.67;94.94;100301.16;5043280;28;20029;-59
2023/02/03 05:09:23;;;;;;;13.50;3.10;;;;;;;6.63;94.67;100282.03;5032477;28;20063;-59
2023/02/03 05:11:48;;;;;;;12.48;2.95;;;;;;;6.63;94.64;100279.38;5037717;28;20038;-59
2023/02/03 05:14:14;;;;;;;9.52;3.15;;;;;;;6.64;94.67;100270.38;5036263;28;20028;-59
2023/02/03 05:16:39;;;;;;;10.52;2.70;;;;;;;6.63;95.09;100276.72;5042433;28;20419;-59
2023/02/03 05:19:05;;;;;;;7.95;2.50;;;;;;;6.74;93.72;100271.88;5042670;28;20021;-58
2023/02/03 05:21:30;;;;;;;11.15;2.85;;;;;;;6.68;94.62;100271.63;5042068;28;20067;-59
2023/02/03 05:23:56;;;;;;;5.07;2.45;;;;;;;6.64;94.46;100275.72;5047475;28;20032;-59
2023/02/03 05:26:21;;;;;;;10.07;3.22;;;;;;;6.67;94.73;100266.50;5050732;28;20110;-59
2023/02/03 05:28:46;;;;;;;7.63;2.78;;;;;;;6.65;94.46;100276.53;5046444;28;20075;-58
2023/02/03 05:31:12;;;;;;;13.00;3.15;;;;;;;6.61;94.91;100270.75;5045201;28;20024;-59
2023/02/03 05:33:37;;;;;;;10.80;2.70;;;;;;;6.61;94.71;100276.06;5044940;28;20025;-59
2023/02/03 05:36:03;;;;;;;14.05;3.10;;;;;;;6.57;95.34;100280.16;5040539;28;20032;-59
2023/02/03 05:38:28;;;;;;;9.15;2.53;;;;;;;6.66;95.39;100273.69;5040566;28;20112;-59
2023/02/03 05:43:38;;;;;;;10.52;3.03;;;;;;;6.69;94.79;100273.28;5045354;28;20082;-59
2023/02/03 05:46:04;;;;;;;16.48;3.00;;;;;;;6.67;94.85;100267.34;5039521;28;20021;-59
2023/02/03 05:48:30;;;;;;;11.57;2.72;;;;;;;6.72;94.70;100287.25;5054183;28;20269;-59
2023/02/03 05:50:55;;;;;;;9.25;2.90;;;;;;;6.72;95.00;100277.41;5032279;28;20056;-59
2023/02/03 05:53:22;;;;;;;12.05;2.83;;;;;;;6.74;93.80;100274.53;5052816;28;20116;-59
2023/02/03 05:55:47;;;;;;;9.30;3.05;;;;;;;6.68;94.17;100276.97;5054007;28;20483;-61
2023/02/03 05:58:13;;;;;;;9.30;2.88;;;;;;;6.74;93.99;100263.88;5045869;28;20044;-59
2023/02/03 06:00:38;;;;;;;6.25;3.00;;;;;;;6.78;92.68;100267.81;5045720;28;20033;-59
2023/02/03 06:03:04;;;;;;;10.50;2.70;;;;;;;6.76;93.35;100261.84;5046611;28;20029;-59
2023/02/03 06:05:30;;;;;;;8.55;2.85;;;;;;;6.68;94.03;100270.81;5049092;28;20024;-59
2023/02/03 06:07:55;;;;;;;8.30;3.20;;;;;;;6.79;93.36;100261.47;5043983;28;20048;-58
2023/02/03 06:10:21;;;;;;;9.32;2.80;;;;;;;6.77;92.75;100263.53;5055487;28;20025;-58
2023/02/03 06:12:46;;;;;;;26.08;3.97;;;;;;;6.79;92.45;100274.78;5048810;28;20017;-59
2023/02/03 06:15:12;;;;;;;12.40;3.08;;;;;;;6.79;92.54;100264.13;5051269;28;20075;-59
2023/02/03 06:17:37;;;;;;;7.85;2.92;;;;;;;6.73;92.74;100272.91;5034660;28;20029;-59
2023/02/03 06:20:06;;;;;;;9.07;2.95;;;;;;;6.73;92.84;100271.06;5046784;28;20029;-59
2023/02/03 06:22:32;;;;;;;9.32;2.97;;;;;;;6.78;92.96;100281.16;5042935;28;20029;-59
2023/02/03 06:24:57;;;;;;;17.02;3.25;;;;;;;6.79;92.43;100288.13;5044040;28;20471;-59
2023/02/03 06:27:23;;;;;;;14.73;3.28;;;;;;;6.75;92.64;100284.22;5045642;28;20032;-59
2023/02/03 06:29:48;;;;;;;9.27;2.85;;;;;;;6.75;92.75;100276.22;5053617;28;20286;-59
2023/02/03 06:32:14;;;;;;;11.80;2.90;;;;;;;6.80;91.88;100292.44;5042954;28;20024;-58
2023/02/03 06:34:39;;;;;;;9.43;2.95;;;;;;;6.77;92.52;100298.16;5052612;28;20562;-59
2023/02/03 06:37:05;;;;;;;11.30;3.13;;;;;;;6.75;92.61;100289.53;5041246;28;20021;-59
2023/02/03 06:39:30;;;;;;;10.07;3.10;;;;;;;6.74;92.90;100295.84;5041808;28;20029;-59
2023/02/03 06:41:56;;;;;;;8.70;2.80;;;;;;;6.70;93.02;100301.56;5068902;28;20086;-58
2023/02/03 06:44:21;;;;;;;13.18;2.83;;;;;;;6.75;92.74;100302.84;5047042;28;20083;-58
2023/02/03 06:46:47;;;;;;;8.00;2.63;;;;;;;6.74;92.66;100298.53;5042004;28;20036;-59
2023/02/03 06:49:12;;;;;;;8.27;2.78;;;;;;;6.76;92.82;100301.81;5043717;28;20024;-58
2023/02/03 06:51:38;;;;;;;8.63;2.50;;;;;;;6.75;92.04;100313.50;5030275;28;20060;-58
2023/02/03 06:54:03;;;;;;;11.38;2.90;;;;;;;6.76;92.25;100313.31;5044514;28;20420;-58
2023/02/03 06:56:29;;;;;;;9.45;2.95;;;;;;;6.72;92.38;100325.38;5040890;28;20534;-58
2023/02/03 06:58:54;;;;;;;6.60;2.97;;;;;;;6.72;92.12;100309.38;5036752;28;20215;-58
2023/02/03 07:01:20;;;;;;;8.25;3.53;;;;;;;6.74;92.12;100295.84;5044208;28;20048;-59
2023/02/03 07:03:46;;;;;;;6.22;2.30;;;;;;;6.79;91.87;100293.44;5043558;28;20493;-58
2023/02/03 07:06:11;;;;;;;11.35;2.92;;;;;;;6.87;90.61;100288.81;5043270;28;20118;-59
2023/02/03 07:08:37;;;;;;;21.65;7.18;;;;;;;6.89;90.40;100293.97;5041605;28;20060;-58
2023/02/03 07:11:02;;;;;;;13.82;6.90;;;;;;;6.90;90.82;100295.59;5045046;28;20473;-58
2023/02/03 07:13:28;;;;;;;33.13;20.55;;;;;;;6.94;90.21;100302.22;5040031;28;20103;-58
2023/02/03 07:15:53;;;;;;;68.55;29.90;;;;;;;6.92;90.33;100314.91;5042074;28;20033;-58
2023/02/03 07:18:23;;;;;;;152.98;66.35;;;;;;;6.87;90.53;100318.13;5040700;28;20033;-58
2023/02/03 07:20:49;;;;;;;51.08;23.30;;;;;;;6.90;91.12;100306.28;5042371;28;20476;-60
2023/02/03 07:23:14;;;;;;;17.88;12.43;;;;;;;6.89;90.96;100309.97;5041389;28;20044;-60
2023/02/03 07:25:40;;;;;;;13.98;9.63;;;;;;;6.87;90.73;100299.47;5025753;28;20017;-58
2023/02/03 07:28:05;;;;;;;15.02;8.60;;;;;;;6.84;91.06;100296.34;5042447;28;20486;-60
2023/02/03 07:30:31;;;;;;;20.55;8.20;;;;;;;6.82;91.02;100287.75;5025659;28;20055;-59
2023/02/03 07:32:56;;;;;;;10.07;5.32;;;;;;;6.84;91.15;100289.22;5043188;28;20107;-59
2023/02/03 07:35:21;;;;;;;17.60;9.45;;;;;;;6.95;91.17;100303.03;5040218;28;20080;-59
2023/02/03 07:37:47;;;;;;;16.48;9.40;;;;;;;6.90;90.45;100306.28;5034896;28;20391;-58
2023/02/03 07:40:13;;;;;;;25.38;15.43;;;;;;;6.89;90.97;100315.28;5040816;28;20024;-59
2023/02/03 07:42:45;;;;;;;8.82;4.13;;;;;;;6.91;90.60;100311.41;5042957;28;20029;-59
2023/02/03 07:45:11;;;;;;;8.93;5.45;;;;;;;6.99;89.79;100315.78;5042796;28;20032;-59
2023/02/03 07:47:37;;;;;;;10.32;4.53;;;;;;;7.04;88.54;100318.69;5035843;28;20043;-59
2023/02/03 07:50:03;;;;;;;14.63;3.85;;;;;;;7.13;87.79;100317.50;5035477;28;20029;-59
2023/02/03 07:52:28;;;;;;;19.70;7.25;;;;;;;7.12;87.47;100320.41;5043432;28;20418;-59
2023/02/03 07:54:54;;;;;;;15.60;3.65;;;;;;;7.19;87.08;100315.09;5037988;28;20025;-59
2023/02/03 07:57:19;;;;;;;11.82;2.83;;;;;;;7.29;85.72;100320.94;5041814;28;20024;-59
2023/02/03 07:59:45;;;;;;;7.28;2.40;;;;;;;7.37;85.03;100311.97;5042835;28;20514;-59
2023/02/03 08:02:10;;;;;;;7.78;2.55;;;;;;;7.39;84.56;100307.22;5042095;28;20052;-58
2023/02/03 08:04:36;;;;;;;11.00;4.75;;;;;;;7.50;84.78;100315.53;5037610;28;20025;-58
2023/02/03 08:07:02;;;;;;;7.32;3.20;;;;;;;7.50;84.86;100323.53;5041471;28;20395;-58
2023/02/03 08:09:27;;;;;;;9.27;4.22;;;;;;;7.49;85.19;100327.22;5039157;28;20045;-59
2023/02/03 08:11:53;;;;;;;13.15;4.15;;;;;;;7.44;85.42;100323.47;5038371;28;20348;-58
2023/02/03 08:14:18;;;;;;;6.88;2.42;;;;;;;7.41;85.26;100319.34;5037050;28;20159;-58
2023/02/03 08:16:44;;;;;;;8.88;4.15;;;;;;;7.42;85.20;100314.88;5044743;28;20028;-58
2023/02/03 08:19:10;;;;;;;9.00;2.22;;;;;;;7.40;85.43;100312.38;5039492;28;20301;-59
2023/02/03 08:21:36;;;;;;;13.27;5.05;;;;;;;7.38;85.64;100303.75;5041222;28;20366;-58
2023/02/03 08:24:01;;;;;;;10.00;3.30;;;;;;;7.37;86.11;100296.78;5038297;28;20500;-59
2023/02/03 08:26:27;;;;;;;10.38;3.20;;;;;;;7.34;86.04;100314.00;5038029;28;20028;-58
2023/02/03 08:28:52;;;;;;;8.35;3.20;;;;;;;7.38;85.74;100322.41;5044599;28;20029;-58
2023/02/03 08:31:17;;;;;;;11.93;3.15;;;;;;;7.42;85.64;100321.03;5035415;28;20127;-58
2023/02/03 08:33:43;;;;;;;11.13;4.00;;;;;;;7.42;85.58;100331.69;5040523;28;20017;-59
2023/02/03 08:36:10;;;;;;;9.70;4.20;;;;;;;7.43;85.52;100337.84;5045974;28;20033;-58
2023/02/03 08:38:36;;;;;;;4.97;2.60;;;;;;;7.46;85.66;100342.78;5043999;28;20073;-58
2023/02/03 08:41:05;;;;;;;8.55;2.58;;;;;;;7.47;85.93;100331.94;5043670;28;20149;-58
2023/02/03 08:43:31;;;;;;;9.88;4.07;;;;;;;7.46;85.67;100343.63;5032538;28;20636;-58
2023/02/03 08:45:56;;;;;;;12.55;4.95;;;;;;;7.44;85.61;100335.00;5034513;28;20033;-58
2023/02/03 08:48:22;;;;;;;9.93;2.50;;;;;;;7.46;86.22;100332.13;5050360;28;20394;-58
2023/02/03 08:50:51;;;;;;;6.72;2.30;;;;;;;7.53;86.29;100331.13;5045704;28;20033;-58
2023/02/03 08:53:17;;;;;;;7.80;2.20;;;;;;;7.47;86.00;100323.94;5045039;28;20040;-58
2023/02/03 08:55:42;;;;;;;8.90;2.40;;;;;;;7.52;85.87;100320.69;5046374;28;20434;-58
2023/02/03 08:58:08;;;;;;;6.30;2.15;;;;;;;7.59;85.93;100299.34;5046970;28;20466;-58
2023/02/03 09:00:33;;;;;;;3.83;2.10;;;;;;;7.60;85.58;100299.16;5050362;28;20032;-59
2023/02/03 09:02:59;;;;;;;7.93;2.08;;;;;;;7.61;85.87;100318.66;5036673;28;20021;-59
2023/02/03 09:05:24;;;;;;;5.68;2.30;;;;;;;7.75;85.79;100315.06;5048151;28;20025;-59
2023/02/03 09:07:49;;;;;;;4.30;1.83;;;;;;;7.76;85.63;100322.88;5045139;28;20037;-59
2023/02/03 09:10:15;;;;;;;4.35;2.20;;;;;;;7.72;85.14;100310.94;5044850;28;20033;-59
2023/02/03 09:12:41;;;;;;;61.17;19.40;;;;;;;7.81;84.94;100324.94;5038432;28;20119;-59
2023/02/03 09:15:06;;;;;;;13.95;6.35;;;;;;;7.76;85.32;100311.34;5039500;28;20028;-59
2023/02/03 09:17:32;;;;;;;13.27;7.07;;;;;;;7.82;85.30;100315.91;5047621;28;20027;-60
2023/02/03 09:20:01;;;;;;;23.40;11.23;;;;;;;7.78;85.29;100314.66;5037552;28;20115;-59
2023/02/03 09:22:26;;;;;;;29.33;16.38;;;;;;;7.78;85.57;100310.13;5041816;28;20033;-59
2023/02/03 09:24:52;;;;;;;9.68;6.40;;;;;;;7.74;85.91;100303.56;5045228;28;20143;-59
2023/02/03 09:27:17;;;;;;;9.65;5.68;;;;;;;7.77;86.09;100313.03;5044572;28;20320;-59
2023/02/03 09:29:43;;;;;;;11.23;6.15;;;;;;;7.73;86.50;100309.09;5043197;28;20086;-59
2023/02/03 09:32:09;;;;;;;5.70;2.78;;;;;;;7.72;87.23;100310.94;5045398;28;20040;-59
2023/02/03 09:34:35;;;;;;;11.23;3.58;;;;;;;7.76;86.99;100314.88;5040994;28;20479;-59
2023/02/03 09:37:00;;;;;;;7.40;3.15;;;;;;;7.74;86.95;100308.09;5041302;28;20041;-59
2023/02/03 09:39:26;;;;;;;10.77;3.85;;;;;;;7.78;87.16;100312.00;5042249;28;20883;-59
2023/02/03 09:42:04;;;;;;;15.80;7.07;;;;;;;7.83;87.30;100306.88;5040393;28;20036;-58
2023/02/03 09:44:46;;;;;;;12.25;5.78;;;;;;;7.90;86.95;100302.41;5042509;28;20120;-59
2023/02/03 09:47:29;;;;;;;11.15;4.35;;;;;;;7.92;86.71;100311.03;5044891;28;20037;-59
2023/02/03 09:49:57;;;;;;;6.35;3.47;;;;;;;7.89;87.33;100311.44;5035737;28;20337;-59
2023/02/03 09:52:27;;;;;;;10.80;5.43;;;;;;;7.80;87.90;100306.47;5045531;28;20077;-59
2023/02/03 09:55:01;;;;;;;14.10;4.47;;;;;;;7.84;87.23;100307.69;5055710;28;20108;-59
2023/02/03 09:57:29;;;;;;;12.23;4.22;;;;;;;7.88;87.80;100298.28;5050869;28;20254;-59
2023/02/03 09:59:56;;;;;;;18.20;8.20;;;;;;;7.87;88.01;100289.47;5057659;28;20037;-59
2023/02/03 10:02:34;;;;;;;8.15;2.55;;;;;;;7.86;87.74;100290.50;5041133;28;20036;-58
2023/02/03 10:05:53;;;;;;;8.60;3.97;;;;;;;7.96;87.53;100290.94;5043609;28;20104;-59
2023/02/03 10:08:45;;;;;;;8.57;4.15;;;;;;;7.98;87.39;100290.72;4985416;28;20046;-59
2023/02/03 10:11:20;;;;;;;7.55;2.55;;;;;;;8.03;87.22;100288.28;5012907;28;20034;-58
2023/02/03 10:13:57;;;;;;;7.95;2.30;;;;;;;8.12;86.53;100291.59;5041349;28;20013;-58
2023/02/03 10:16:32;;;;;;;10.73;2.80;;;;;;;8.12;87.23;100288.94;5050606;28;20470;-58
2023/02/03 10:18:59;;;;;;;7.75;2.35;;;;;;;8.04;87.95;100292.63;5036390;28;20033;-58
2023/02/03 10:21:27;;;;;;;10.68;2.53;;;;;;;7.96;88.65;100296.28;5039482;28;20044;-58
2023/02/03 10:23:53;;;;;;;5.70;3.03;;;;;;;7.99;88.40;100289.72;5038429;28;20495;-58
2023/02/03 10:26:21;;;;;;;10.30;3.53;;;;;;;8.07;88.12;100289.53;5037579;28;20103;-58
2023/02/03 10:28:54;;;;;;;10.50;4.15;;;;;;;8.06;88.59;100297.72;5054867;28;20037;-59
2023/02/03 10:31:22;;;;;;;11.10;5.32;;;;;;;8.05;89.69;100298.78;5045330;28;20077;-59
2023/02/03 10:33:47;;;;;;;26.90;11.38;;;;;;;8.03;89.31;100301.63;5046802;28;20028;-59
2023/02/03 10:36:19;;;;;;;31.63;9.77;;;;;;;8.06;89.23;100305.75;5060014;28;20029;-59
2023/02/03 10:38:58;;;;;;;6.95;2.42;;;;;;;8.07;89.96;100307.41;5042433;28;20036;-58
2023/02/03 10:41:24;;;;;;;8.95;2.40;;;;;;;8.06;90.17;100316.41;5045442;28;20052;-58
2023/02/03 10:43:50;;;;;;;8.13;2.78;;;;;;;8.03;90.39;100323.00;5044826;28;20514;-58
2023/02/03 10:46:25;;;;;;;8.90;2.28;;;;;;;7.99;91.45;100322.56;5043342;28;20056;-58
2023/02/03 10:48:51;;;;;;;8.90;2.42;;;;;;;7.93;92.40;100320.69;5042241;28;20369;-59
2023/02/03 10:51:22;;;;;;;9.75;2.60;;;;;;;7.97;92.03;100332.63;5042736;28;20354;-59
2023/02/03 10:53:51;;;;;;;6.25;2.53;;;;;;;7.96;92.81;100344.34;5033304;28;20021;-58
2023/02/03 10:56:17;;;;;;;13.60;2.70;;;;;;;7.95;92.67;100344.53;5039513;28;20040;-59
2023/02/03 10:58:57;;;;;;;10.00;2.47;;;;;;;7.86;93.16;100343.88;5024543;28;20051;-59
2023/02/03 11:01:27;;;;;;;6.53;2.45;;;;;;;7.93;93.18;100344.69;5043213;28;20497;-60
2023/02/03 11:04:02;;;;;;;10.40;3.10;;;;;;;7.89;93.68;100350.66;5040215;28;20033;-60
2023/02/03 11:06:28;;;;;;;8.98;2.70;;;;;;;7.91;94.24;100341.44;5038854;28;20074;-59
2023/02/03 11:08:54;;;;;;;8.73;2.65;;;;;;;7.92;94.78;100348.41;5051670;28;20120;-60
2023/02/03 11:11:27;;;;;;;16.27;2.65;;;;;;;7.99;94.93;100343.94;5053176;28;20453;-59
2023/02/03 11:14:01;;;;;;;9.40;2.67;;;;;;;7.97;95.29;100340.63;5039732;28;20543;-60
2023/02/03 11:16:29;;;;;;;47.80;18.65;;;;;;;8.07;95.83;100326.09;5036345;28;20053;-59
2023/02/03 11:19:06;;;;;;;15.93;4.18;;;;;;;8.06;97.31;100317.25;5039157;28;20075;-60
2023/02/03 11:21:39;;;;;;;49.83;21.60;;;;;;;8.02;98.75;100313.34;5026442;28;20033;-59
2023/02/03 11:24:20;;;;;;;24.95;11.77;;;;;;;7.92;99.05;100315.56;5029647;28;20554;-59
2023/02/03 11:26:52;;;;;;;29.05;13.60;;;;;;;7.98;99.62;100310.22;5067224;28;20036;-59
2023/02/03 11:29:27;;;;;;;22.42;9.52;;;;;;;7.92;100.00;100308.38;5040094;28;20160;-60
2023/02/03 11:31:56;;;;;;;16.88;7.18;;;;;;;8.05;100.00;100304.09;5040720;28;20421;-59